Аэропорт: Кемерово. Кемерово

ICAO: UNEE

METAR:
2019/01/21 23:00
UNEE 212300Z 22007MPS 2500 R23/P2000U -SHSN SCT010 OVC033CB M04/M05 Q1018 R23/451033 NOSIG RMK QFE741
METAR:
2019/01/21 21:21
TAF UNEE 212000Z 2121/2221 21008G13MPS 5000 -SHSN BKN012CB 
      TEMPO 2121/2203 0500 +SHSN BKN002 BKN012CB 
      BECMG 2200/2202 27006G12MPS